createdAt,value
2022-08-31T00:01:01.474Z,3.95
2022-08-31T00:03:46.075Z,3.08
2022-08-31T00:06:15.691Z,3.50
2022-08-31T00:08:45.312Z,3.22
2022-08-31T00:11:15.023Z,3.58
2022-08-31T00:13:46.651Z,3.50
2022-08-31T00:16:16.351Z,3.83
2022-08-31T00:18:52.736Z,3.30
2022-08-31T00:21:23.508Z,3.70
2022-08-31T00:23:53.216Z,3.35
2022-08-31T00:26:23.076Z,3.28
2022-08-31T00:28:53.204Z,3.97
2022-08-31T00:31:22.769Z,3.08
2022-08-31T00:33:56.749Z,3.13
2022-08-31T00:36:27.585Z,3.17
2022-08-31T00:38:57.778Z,2.72
2022-08-31T00:41:28.926Z,3.28
2022-08-31T00:43:59.778Z,2.53
2022-08-31T00:46:30.323Z,3.13
2022-08-31T00:49:07.696Z,2.92
2022-08-31T00:51:39.465Z,3.17
2022-08-31T00:54:09.790Z,2.78
2022-08-31T00:56:41.820Z,3.05
2022-08-31T00:59:11.436Z,2.60
2022-08-31T01:01:41.074Z,2.75
2022-08-31T01:04:13.800Z,2.92
2022-08-31T01:06:43.502Z,2.83
2022-08-31T01:09:14.031Z,2.80
2022-08-31T01:11:44.076Z,3.03
2022-08-31T01:14:13.838Z,2.83
2022-08-31T01:16:45.547Z,2.88
2022-08-31T01:19:24.862Z,2.72
2022-08-31T01:24:26.599Z,2.90
2022-08-31T01:26:57.620Z,2.78
2022-08-31T01:29:27.203Z,2.92
2022-08-31T01:31:56.864Z,3.10
2022-08-31T01:34:26.512Z,2.95
2022-08-31T01:36:56.895Z,3.30
2022-08-31T01:39:29.172Z,2.47
2022-08-31T01:41:58.839Z,3.08
2022-08-31T01:44:29.423Z,3.60
2022-08-31T01:46:59.201Z,3.50
2022-08-31T01:49:30.507Z,2.85
2022-08-31T01:52:00.840Z,2.85
2022-08-31T01:54:33.410Z,3.17
2022-08-31T01:57:04.155Z,3.70
2022-08-31T01:59:52.420Z,3.03
2022-08-31T02:02:48.159Z,3.17
2022-08-31T02:05:18.066Z,3.58
2022-08-31T02:07:48.243Z,3.25
2022-08-31T02:10:20.468Z,2.80
2022-08-31T02:12:50.150Z,3.00
2022-08-31T02:15:19.816Z,2.97
2022-08-31T02:17:49.478Z,3.50
2022-08-31T02:20:23.398Z,3.28
2022-08-31T02:22:53.510Z,3.35
2022-08-31T02:25:25.717Z,3.58
2022-08-31T02:27:55.316Z,3.08
2022-08-31T02:30:24.956Z,3.10
2022-08-31T02:32:54.735Z,3.33
2022-08-31T02:35:24.522Z,2.97
2022-08-31T02:37:54.221Z,2.97
2022-08-31T02:40:26.797Z,3.35
2022-08-31T02:42:56.968Z,3.30
2022-08-31T02:45:29.318Z,3.35
2022-08-31T02:48:07.528Z,3.88
2022-08-31T02:50:41.386Z,3.35
2022-08-31T02:53:11.300Z,2.78
2022-08-31T02:55:44.591Z,3.33
2022-08-31T02:58:15.059Z,3.50
2022-08-31T03:00:47.381Z,3.08
2022-08-31T03:03:19.327Z,2.97
2022-08-31T03:05:49.191Z,3.53
2022-08-31T03:08:19.373Z,3.70
2022-08-31T03:10:55.088Z,4.15
2022-08-31T03:13:24.753Z,3.63
2022-08-31T03:15:55.096Z,3.55
2022-08-31T03:18:24.791Z,3.63
2022-08-31T03:20:54.343Z,3.42
2022-08-31T03:23:23.996Z,3.72
2022-08-31T03:25:56.197Z,3.58
2022-08-31T03:28:25.809Z,3.67
2022-08-31T03:31:13.846Z,3.65
2022-08-31T03:33:43.798Z,4.00
2022-08-31T03:36:15.993Z,4.30
2022-08-31T03:38:45.698Z,3.63
2022-08-31T03:41:19.271Z,3.45
2022-08-31T03:43:49.776Z,4.03
2022-08-31T03:46:19.812Z,3.70
2022-08-31T03:48:50.106Z,3.45
2022-08-31T03:51:20.300Z,3.13
2022-08-31T03:53:50.253Z,3.92
2022-08-31T03:56:24.244Z,3.83
2022-08-31T03:58:53.980Z,4.03
2022-08-31T04:01:44.556Z,3.38
2022-08-31T04:04:32.977Z,3.75
2022-08-31T04:07:21.529Z,3.60
2022-08-31T04:10:07.129Z,3.40
2022-08-31T04:12:59.674Z,3.67
2022-08-31T04:15:40.514Z,3.70
2022-08-31T04:18:28.609Z,3.67
2022-08-31T04:20:58.280Z,3.65
2022-08-31T04:23:30.196Z,4.03
2022-08-31T04:26:01.499Z,3.58
2022-08-31T04:28:33.729Z,4.05
2022-08-31T04:31:09.130Z,4.00
2022-08-31T04:33:39.253Z,3.75
2022-08-31T04:36:09.883Z,3.97
2022-08-31T04:38:40.757Z,3.72
2022-08-31T04:41:12.830Z,3.88
2022-08-31T04:43:47.885Z,3.90
2022-08-31T04:46:18.565Z,4.35
2022-08-31T04:48:48.229Z,3.92
2022-08-31T04:51:19.409Z,3.60
2022-08-31T04:53:49.253Z,4.47
2022-08-31T04:56:20.092Z,4.20
2022-08-31T04:58:53.399Z,3.80
2022-08-31T05:01:25.333Z,3.60
2022-08-31T05:04:30.012Z,4.22
2022-08-31T05:06:59.618Z,4.28
2022-08-31T05:09:29.527Z,4.32
2022-08-31T05:11:59.520Z,4.15
2022-08-31T05:14:31.774Z,4.32
2022-08-31T05:17:09.822Z,3.80
2022-08-31T05:19:44.795Z,3.70
2022-08-31T05:22:17.027Z,4.55
2022-08-31T05:24:48.321Z,4.28
2022-08-31T05:27:18.069Z,5.07
2022-08-31T05:29:50.793Z,5.57
2022-08-31T05:32:39.205Z,4.95
2022-08-31T05:35:10.348Z,4.85
2022-08-31T05:37:40.912Z,4.90
2022-08-31T05:40:13.134Z,4.50
2022-08-31T05:42:43.281Z,4.95
2022-08-31T05:45:18.220Z,5.45
2022-08-31T05:47:49.237Z,5.50
2022-08-31T05:50:20.068Z,4.85
2022-08-31T05:52:49.787Z,4.63
2022-08-31T05:55:19.828Z,4.28
2022-08-31T05:57:49.483Z,4.30
2022-08-31T06:00:22.440Z,4.50
2022-08-31T06:05:28.060Z,4.07
2022-08-31T06:08:00.042Z,4.35
2022-08-31T06:10:33.576Z,3.53
2022-08-31T06:13:05.528Z,4.45
2022-08-31T06:15:42.033Z,5.20
2022-08-31T06:18:13.182Z,4.53
2022-08-31T06:20:42.889Z,4.28
2022-08-31T06:23:13.995Z,4.55
2022-08-31T06:25:49.382Z,5.30
2022-08-31T06:28:19.013Z,4.90
2022-08-31T06:30:55.723Z,5.15
2022-08-31T06:33:26.469Z,4.70
2022-08-31T06:36:15.210Z,4.43
2022-08-31T06:39:15.451Z,4.53
2022-08-31T06:41:52.743Z,4.32
2022-08-31T06:44:42.667Z,4.38
2022-08-31T06:47:23.978Z,4.85
2022-08-31T06:49:54.405Z,3.90
2022-08-31T06:52:24.567Z,3.88
2022-08-31T06:55:09.443Z,4.57
2022-08-31T06:57:54.110Z,3.90
2022-08-31T07:00:43.117Z,4.22
2022-08-31T07:03:44.938Z,3.83
2022-08-31T07:06:17.541Z,3.78
2022-08-31T07:08:51.978Z,3.90
2022-08-31T07:11:24.529Z,4.13
2022-08-31T07:13:55.209Z,3.67
2022-08-31T07:16:26.340Z,3.13
2022-08-31T07:19:00.624Z,3.85
2022-08-31T07:21:31.467Z,3.45
2022-08-31T07:24:02.421Z,3.63
2022-08-31T07:26:36.434Z,4.10
2022-08-31T07:29:09.116Z,4.25
2022-08-31T07:31:44.915Z,3.78
2022-08-31T07:34:18.813Z,3.33
2022-08-31T07:37:11.964Z,3.85
2022-08-31T07:39:54.436Z,3.88
2022-08-31T07:42:28.825Z,3.72
2022-08-31T07:44:59.738Z,3.97
2022-08-31T07:47:32.725Z,3.85
2022-08-31T07:50:05.821Z,4.03
2022-08-31T07:52:54.499Z,4.10
2022-08-31T07:56:00.560Z,4.30
2022-08-31T07:58:42.894Z,4.28
2022-08-31T08:01:14.511Z,4.03
2022-08-31T08:03:45.377Z,4.57
2022-08-31T08:06:56.097Z,4.05
2022-08-31T08:09:44.140Z,3.70
2022-08-31T08:12:24.660Z,4.25
2022-08-31T08:15:00.471Z,3.72
2022-08-31T08:17:38.552Z,4.35
2022-08-31T08:20:14.002Z,3.53
2022-08-31T08:22:55.689Z,3.85
2022-08-31T08:25:36.407Z,3.97
2022-08-31T08:28:38.602Z,3.50
2022-08-31T08:31:10.201Z,4.20
2022-08-31T08:33:39.894Z,4.70
2022-08-31T08:36:10.570Z,4.03
2022-08-31T08:38:46.441Z,3.90
2022-08-31T08:41:19.358Z,4.20
2022-08-31T08:43:52.593Z,4.20
2022-08-31T08:46:34.929Z,3.97
2022-08-31T08:49:10.920Z,3.72
2022-08-31T08:51:41.510Z,3.30
2022-08-31T08:54:15.279Z,3.22
2022-08-31T08:56:47.869Z,3.40
2022-08-31T08:59:21.244Z,3.60
2022-08-31T09:01:55.843Z,2.92
2022-08-31T09:04:44.936Z,3.50
2022-08-31T09:07:44.855Z,3.38
2022-08-31T09:10:21.998Z,3.22
2022-08-31T09:12:58.176Z,3.05
2022-08-31T09:15:44.213Z,2.80
2022-08-31T09:18:26.515Z,3.05
2022-08-31T09:21:04.300Z,2.75
2022-08-31T09:23:38.278Z,2.55
2022-08-31T09:26:11.322Z,2.55
2022-08-31T09:29:04.097Z,2.45
2022-08-31T09:31:37.773Z,2.45
2022-08-31T09:34:11.179Z,2.97
2022-08-31T09:36:42.030Z,2.83
2022-08-31T09:39:19.443Z,2.78
2022-08-31T09:41:55.088Z,3.42
2022-08-31T09:44:35.447Z,2.80
2022-08-31T09:47:07.720Z,3.38
2022-08-31T09:49:39.396Z,3.40
2022-08-31T09:52:21.318Z,3.35
2022-08-31T09:55:10.226Z,3.20
2022-08-31T10:00:18.939Z,3.83
2022-08-31T10:05:31.856Z,3.60
2022-08-31T10:08:07.281Z,4.38
2022-08-31T10:10:39.250Z,3.95
2022-08-31T10:13:13.218Z,3.08
2022-08-31T10:15:48.572Z,3.15
2022-08-31T10:18:19.990Z,4.70
2022-08-31T10:20:56.102Z,3.78
2022-08-31T10:23:33.415Z,3.33
2022-08-31T10:26:07.446Z,3.25
2022-08-31T10:28:40.039Z,3.60
2022-08-31T10:31:19.813Z,3.05
2022-08-31T10:34:04.740Z,8.43
2022-08-31T10:36:37.774Z,5.63
2022-08-31T10:39:13.585Z,4.60
2022-08-31T10:41:47.653Z,3.53
2022-08-31T10:44:24.328Z,3.47
2022-08-31T10:46:59.117Z,3.30
2022-08-31T10:49:29.456Z,3.88
2022-08-31T10:52:03.328Z,3.90
2022-08-31T10:54:39.358Z,4.20
2022-08-31T10:57:21.412Z,4.25
2022-08-31T10:59:56.585Z,4.32
2022-08-31T11:02:40.813Z,3.10
2022-08-31T11:05:19.597Z,6.70
2022-08-31T11:07:54.216Z,37.55
2022-08-31T11:10:27.321Z,14.77
2022-08-31T11:13:01.030Z,8.45
2022-08-31T11:15:48.037Z,3.22
2022-08-31T11:18:42.794Z,1.75
2022-08-31T11:21:20.970Z,2.20
2022-08-31T11:23:57.933Z,2.13
2022-08-31T11:26:45.768Z,2.80
2022-08-31T11:29:29.015Z,2.05
2022-08-31T11:32:01.145Z,3.25
2022-08-31T11:34:47.140Z,5.75
2022-08-31T11:37:36.859Z,7.35
2022-08-31T11:40:07.400Z,2.20
2022-08-31T11:42:53.752Z,2.10
2022-08-31T11:45:31.409Z,2.78
2022-08-31T11:48:01.920Z,1.83
2022-08-31T11:50:56.251Z,1.88
2022-08-31T11:53:32.600Z,1.48
2022-08-31T11:56:04.087Z,1.80
2022-08-31T11:58:35.557Z,1.20
2022-08-31T12:01:09.578Z,1.60
2022-08-31T12:03:46.020Z,1.25
2022-08-31T12:06:32.370Z,1.48
2022-08-31T12:09:15.386Z,1.50
2022-08-31T12:11:47.801Z,1.30
2022-08-31T12:14:20.108Z,1.70
2022-08-31T12:17:02.358Z,1.70
2022-08-31T12:20:08.097Z,1.58
2022-08-31T12:23:04.894Z,1.60
2022-08-31T12:25:43.220Z,1.60
2022-08-31T12:28:17.769Z,2.10
2022-08-31T12:30:51.839Z,1.52
2022-08-31T12:33:26.134Z,1.83
2022-08-31T12:35:58.238Z,2.03
2022-08-31T12:38:30.647Z,1.73
2022-08-31T12:41:02.855Z,1.90
2022-08-31T12:43:36.223Z,2.08
2022-08-31T12:46:35.875Z,2.45
2022-08-31T12:49:15.929Z,1.85
2022-08-31T12:51:47.336Z,1.45
2022-08-31T12:54:22.051Z,1.95
2022-08-31T12:56:59.694Z,2.58
2022-08-31T12:59:59.463Z,2.22
2022-08-31T13:02:25.823Z,2.03
2022-08-31T13:04:55.545Z,2.00
2022-08-31T13:07:26.892Z,2.10
2022-08-31T13:10:05.426Z,2.15
2022-08-31T13:12:37.784Z,2.33
2022-08-31T13:15:07.802Z,2.05
2022-08-31T13:17:40.911Z,2.20
2022-08-31T13:20:12.588Z,2.10
2022-08-31T13:22:44.854Z,1.75
2022-08-31T13:25:17.213Z,1.70
2022-08-31T13:27:53.721Z,2.17
2022-08-31T13:30:25.993Z,2.17
2022-08-31T13:32:57.472Z,1.95
2022-08-31T13:35:31.902Z,2.22
2022-08-31T13:38:05.823Z,2.40
2022-08-31T13:40:37.592Z,1.92
2022-08-31T13:43:11.061Z,1.85
2022-08-31T13:45:43.308Z,1.55
2022-08-31T13:48:16.646Z,1.67
2022-08-31T13:50:53.169Z,2.10
2022-08-31T13:53:40.227Z,1.92
2022-08-31T13:56:42.973Z,1.67
2022-08-31T13:59:23.726Z,1.60
2022-08-31T14:01:54.255Z,1.80
2022-08-31T14:04:48.720Z,1.40
2022-08-31T14:07:21.755Z,1.60
2022-08-31T14:09:53.901Z,1.45
2022-08-31T14:12:35.009Z,1.13
2022-08-31T14:15:20.392Z,1.27
2022-08-31T14:21:09.923Z,1.20
2022-08-31T14:23:35.633Z,1.10
2022-08-31T14:26:07.202Z,1.40
2022-08-31T14:28:44.055Z,1.08
2022-08-31T14:31:31.528Z,1.38
2022-08-31T14:34:20.348Z,1.23
2022-08-31T14:39:24.405Z,1.25
2022-08-31T14:41:54.738Z,1.70
2022-08-31T14:44:26.016Z,1.05
2022-08-31T14:46:55.824Z,0.93
2022-08-31T14:49:30.636Z,1.02
2022-08-31T14:52:06.577Z,1.05
2022-08-31T14:54:37.960Z,0.73
2022-08-31T14:57:10.160Z,0.90
2022-08-31T14:59:41.099Z,0.80
2022-08-31T15:02:13.372Z,1.13
2022-08-31T15:04:46.171Z,1.15
2022-08-31T15:07:16.702Z,0.80
2022-08-31T15:09:50.257Z,1.05
2022-08-31T15:12:20.140Z,0.90
2022-08-31T15:14:49.911Z,0.75
2022-08-31T15:17:24.692Z,0.80
2022-08-31T15:22:42.393Z,1.02
2022-08-31T15:25:15.301Z,1.40
2022-08-31T15:27:45.681Z,0.98
2022-08-31T15:30:17.549Z,0.98
2022-08-31T15:32:48.231Z,0.98
2022-08-31T15:35:23.585Z,1.05
2022-08-31T15:37:56.675Z,1.15
2022-08-31T15:40:28.961Z,1.10
2022-08-31T15:43:01.344Z,1.10
2022-08-31T15:45:31.155Z,1.13
2022-08-31T15:48:13.775Z,1.00
2022-08-31T15:50:52.761Z,0.82
2022-08-31T15:55:53.535Z,1.02
2022-08-31T15:58:25.353Z,1.05
2022-08-31T16:00:55.212Z,1.45
2022-08-31T16:03:24.835Z,1.33
2022-08-31T16:05:58.824Z,1.08
2022-08-31T16:08:28.660Z,1.15
2022-08-31T16:10:58.295Z,1.10
2022-08-31T16:13:27.893Z,1.30
2022-08-31T16:15:57.518Z,1.17
2022-08-31T16:18:28.057Z,1.30
2022-08-31T16:21:07.519Z,1.63
2022-08-31T16:23:37.131Z,1.38
2022-08-31T16:26:07.198Z,1.20
2022-08-31T16:28:37.479Z,1.45
2022-08-31T16:31:12.699Z,1.40
2022-08-31T16:33:44.766Z,1.15
2022-08-31T16:36:20.467Z,1.40
2022-08-31T16:38:50.691Z,1.80
2022-08-31T16:41:23.839Z,1.52
2022-08-31T16:44:15.975Z,1.20
2022-08-31T16:46:43.620Z,1.30
2022-08-31T16:49:25.955Z,1.40
2022-08-31T16:51:58.449Z,1.73
2022-08-31T16:54:28.848Z,1.33
2022-08-31T16:56:59.665Z,1.73
2022-08-31T16:59:30.080Z,1.67
2022-08-31T17:01:59.750Z,1.40
2022-08-31T17:04:50.844Z,1.38
2022-08-31T17:07:21.680Z,1.50
2022-08-31T17:09:51.382Z,1.48
2022-08-31T17:12:22.186Z,1.80
2022-08-31T17:14:53.283Z,1.73
2022-08-31T17:17:24.911Z,2.10
2022-08-31T17:19:56.170Z,1.98
2022-08-31T17:22:32.899Z,2.20
2022-08-31T17:25:04.905Z,9.90
2022-08-31T17:27:35.969Z,4.82
2022-08-31T17:30:08.026Z,7.10
2022-08-31T17:32:45.055Z,3.08
2022-08-31T17:35:18.330Z,4.07
2022-08-31T17:37:51.041Z,4.88
2022-08-31T17:40:21.098Z,7.38
2022-08-31T17:42:55.027Z,9.35
2022-08-31T17:45:27.789Z,8.75
2022-08-31T17:47:57.869Z,9.10
2022-08-31T17:50:27.472Z,4.55
2022-08-31T17:52:59.665Z,4.30
2022-08-31T17:55:30.075Z,4.00
2022-08-31T17:57:59.727Z,3.58
2022-08-31T18:00:33.130Z,3.20
2022-08-31T18:03:02.800Z,2.90
2022-08-31T18:05:32.409Z,2.67
2022-08-31T18:08:04.641Z,2.47
2022-08-31T18:10:34.513Z,3.13
2022-08-31T18:13:04.290Z,3.38
2022-08-31T18:15:34.043Z,3.00
2022-08-31T18:18:03.640Z,2.60
2022-08-31T18:20:35.745Z,2.75
2022-08-31T18:23:08.482Z,3.38
2022-08-31T18:25:38.139Z,3.15
2022-08-31T18:28:07.877Z,3.00
2022-08-31T18:30:41.368Z,5.07
2022-08-31T18:33:13.883Z,4.55
2022-08-31T18:35:46.177Z,9.90
2022-08-31T18:38:18.818Z,16.98
2022-08-31T18:41:01.164Z,17.67
2022-08-31T18:43:43.286Z,15.65
2022-08-31T18:46:12.984Z,15.25
2022-08-31T18:49:01.161Z,18.50
2022-08-31T18:51:38.759Z,27.80
2022-08-31T18:54:11.935Z,20.65
2022-08-31T18:56:41.836Z,5.88
2022-08-31T18:59:11.507Z,4.90
2022-08-31T19:01:42.651Z,3.42
2022-08-31T19:04:12.878Z,3.38
2022-08-31T19:06:43.233Z,3.17
2022-08-31T19:09:15.762Z,3.40
2022-08-31T19:11:49.020Z,2.65
2022-08-31T19:14:20.097Z,2.78
2022-08-31T19:16:51.419Z,3.10
2022-08-31T19:19:24.968Z,2.97
2022-08-31T19:21:54.715Z,3.28
2022-08-31T19:24:27.081Z,3.15
2022-08-31T19:26:58.692Z,3.47
2022-08-31T19:29:31.104Z,3.45
2022-08-31T19:32:01.695Z,2.80
2022-08-31T19:34:32.578Z,3.75
2022-08-31T19:37:02.973Z,2.85
2022-08-31T19:39:37.317Z,3.08
2022-08-31T19:42:08.822Z,3.47
2022-08-31T19:45:23.926Z,2.65
2022-08-31T19:47:38.911Z,2.70
2022-08-31T19:50:13.571Z,2.30
2022-08-31T19:52:43.793Z,2.78
2022-08-31T19:55:16.094Z,2.38
2022-08-31T19:57:46.319Z,3.10
2022-08-31T20:00:16.637Z,2.67
2022-08-31T20:02:46.472Z,2.50
2022-08-31T20:05:16.459Z,2.60
2022-08-31T20:07:46.069Z,3.13
2022-08-31T20:10:18.372Z,2.88
2022-08-31T20:12:47.966Z,2.85
2022-08-31T20:15:18.250Z,2.53
2022-08-31T20:17:48.169Z,2.40
2022-08-31T20:20:17.803Z,2.50
2022-08-31T20:22:48.592Z,3.20
2022-08-31T20:25:25.894Z,3.00
2022-08-31T20:27:57.673Z,2.85
2022-08-31T20:30:27.326Z,3.47
2022-08-31T20:32:56.910Z,3.60
2022-08-31T20:35:29.330Z,4.05
2022-08-31T20:37:59.154Z,2.85
2022-08-31T20:40:31.449Z,3.42
2022-08-31T20:43:03.197Z,2.67
2022-08-31T20:45:32.785Z,3.35
2022-08-31T20:48:14.828Z,3.30
2022-08-31T20:50:44.854Z,2.97
2022-08-31T20:53:42.123Z,2.95
2022-08-31T20:56:14.782Z,2.70
2022-08-31T20:58:48.492Z,3.40
2022-08-31T21:01:18.137Z,3.75
2022-08-31T21:03:48.283Z,2.67
2022-08-31T21:06:17.885Z,2.85
2022-08-31T21:08:47.484Z,2.95
2022-08-31T21:11:20.969Z,3.78
2022-08-31T21:13:50.873Z,3.70
2022-08-31T21:16:21.817Z,3.08
2022-08-31T21:18:52.501Z,3.40
2022-08-31T21:21:22.107Z,3.40
2022-08-31T21:23:51.721Z,3.80
2022-08-31T21:26:26.084Z,3.47
2022-08-31T21:28:56.726Z,4.47
2022-08-31T21:31:28.864Z,3.33
2022-08-31T21:34:00.314Z,3.67
2022-08-31T21:36:33.693Z,3.70
2022-08-31T21:39:03.588Z,3.28
2022-08-31T21:41:36.846Z,3.08
2022-08-31T21:44:07.301Z,2.65
2022-08-31T21:46:38.454Z,3.60
2022-08-31T21:49:08.755Z,3.60
2022-08-31T21:51:42.251Z,3.10
2022-08-31T21:54:11.934Z,2.63
2022-08-31T21:56:45.782Z,2.88
2022-08-31T21:59:15.574Z,2.65
2022-08-31T22:01:45.386Z,2.35
2022-08-31T22:04:16.352Z,2.55
2022-08-31T22:06:49.949Z,2.45
2022-08-31T22:09:22.513Z,2.15
2022-08-31T22:11:57.300Z,2.35
2022-08-31T22:14:29.769Z,2.17
2022-08-31T22:17:00.317Z,2.08
2022-08-31T22:19:34.105Z,2.70
2022-08-31T22:22:03.698Z,2.28
2022-08-31T22:24:36.001Z,2.50
2022-08-31T22:27:09.922Z,2.38
2022-08-31T22:29:40.904Z,2.00
2022-08-31T22:32:12.901Z,2.60
2022-08-31T22:34:43.020Z,2.78
2022-08-31T22:37:14.298Z,2.53
2022-08-31T22:39:44.575Z,2.30
2022-08-31T22:42:16.787Z,2.30
2022-08-31T22:44:46.821Z,2.17
2022-08-31T22:47:16.419Z,2.42
2022-08-31T22:49:45.999Z,2.33
2022-08-31T22:52:17.464Z,1.70
2022-08-31T22:54:47.157Z,1.85
2022-08-31T22:57:19.629Z,1.83
2022-08-31T22:59:49.223Z,2.17
2022-08-31T23:02:18.828Z,1.77
2022-08-31T23:04:50.108Z,2.05
2022-08-31T23:07:19.690Z,2.38
2022-08-31T23:09:49.255Z,1.83
2022-08-31T23:12:21.491Z,2.38
2022-08-31T23:14:51.105Z,2.00
2022-08-31T23:17:20.670Z,2.10
2022-08-31T23:19:53.350Z,1.95
2022-08-31T23:22:24.496Z,1.52
2022-08-31T23:24:58.068Z,2.13
2022-08-31T23:27:31.094Z,1.63
2022-08-31T23:30:00.709Z,1.60
2022-08-31T23:32:33.758Z,1.70
2022-08-31T23:35:03.536Z,1.40
2022-08-31T23:37:33.296Z,2.05
2022-08-31T23:40:04.439Z,2.08
2022-08-31T23:42:41.367Z,2.38
2022-08-31T23:45:12.896Z,2.15
2022-08-31T23:47:42.480Z,1.60
2022-08-31T23:50:14.872Z,2.30
2022-08-31T23:52:45.920Z,1.85
2022-08-31T23:55:15.861Z,1.70
2022-08-31T23:57:49.486Z,1.65
